createdAt,value
2023-01-18T00:00:15.810Z,0
2023-01-18T00:00:56.346Z,0
2023-01-18T00:01:36.883Z,0
2023-01-18T00:03:50.058Z,0
2023-01-18T00:04:30.636Z,0
2023-01-18T00:05:11.133Z,0
2023-01-18T00:05:51.648Z,0
2023-01-18T00:08:34.926Z,0
2023-01-18T00:09:16.159Z,0
2023-01-18T00:09:56.657Z,0
2023-01-18T00:10:37.198Z,0
2023-01-18T00:11:17.690Z,0
2023-01-18T00:11:58.231Z,0
2023-01-18T00:12:38.738Z,0
2023-01-18T00:13:19.270Z,0
2023-01-18T00:17:10.113Z,0
2023-01-18T00:17:50.643Z,0
2023-01-18T00:18:31.170Z,0
2023-01-18T00:19:11.689Z,0
2023-01-18T00:23:15.681Z,0
2023-01-18T00:23:56.191Z,0
2023-01-18T00:24:36.716Z,0
2023-01-18T00:25:17.220Z,0
2023-01-18T00:25:57.743Z,0
2023-01-18T00:26:38.292Z,0
2023-01-18T00:27:18.818Z,0
2023-01-18T00:27:59.366Z,0
2023-01-18T00:33:37.490Z,0
2023-01-18T00:34:18.002Z,0
2023-01-18T00:34:58.512Z,0
2023-01-18T00:35:39.058Z,0
2023-01-18T00:37:52.164Z,0
2023-01-18T00:38:32.619Z,0
2023-01-18T00:39:13.164Z,0
2023-01-18T00:39:53.712Z,0
2023-01-18T00:42:09.012Z,0
2023-01-18T00:42:50.337Z,0
2023-01-18T00:43:30.895Z,0
2023-01-18T00:44:11.580Z,0
2023-01-18T00:46:24.661Z,0
2023-01-18T00:47:05.149Z,0
2023-01-18T00:47:46.422Z,0
2023-01-18T00:50:25.982Z,0
2023-01-18T00:51:06.552Z,0
2023-01-18T00:51:47.055Z,0
2023-01-18T00:52:27.603Z,0
2023-01-18T00:56:30.756Z,0
2023-01-18T00:57:11.278Z,0
2023-01-18T00:57:51.791Z,0
2023-01-18T00:58:32.316Z,0
2023-01-18T00:59:12.829Z,0
2023-01-18T00:59:53.342Z,0
2023-01-18T01:00:33.868Z,0
2023-01-18T01:01:14.526Z,0
2023-01-18T01:01:55.109Z,0
2023-01-18T01:02:35.545Z,0
2023-01-18T01:09:20.751Z,0
2023-01-18T01:10:01.248Z,0
2023-01-18T01:10:41.758Z,0
2023-01-18T01:11:22.313Z,0
2023-01-18T01:12:02.902Z,0
2023-01-18T01:12:43.400Z,0
2023-01-18T01:13:23.988Z,0
2023-01-18T01:14:04.518Z,0
2023-01-18T01:14:45.066Z,0
2023-01-18T01:15:25.618Z,0
2023-01-18T01:23:03.061Z,0
2023-01-18T01:23:44.395Z,0
2023-01-18T01:24:24.880Z,0
2023-01-18T01:25:05.409Z,0
2023-01-18T01:27:18.423Z,0
2023-01-18T01:27:59.520Z,0
2023-01-18T01:28:40.860Z,0
2023-01-18T01:29:21.468Z,0
2023-01-18T01:31:23.068Z,0
2023-01-18T01:32:03.709Z,0
2023-01-18T01:32:44.272Z,0
2023-01-18T01:33:24.883Z,0
2023-01-18T01:34:05.430Z,0
2023-01-18T01:34:45.989Z,0
2023-01-18T01:35:26.520Z,0
2023-01-18T01:36:07.031Z,0
2023-01-18T01:36:47.575Z,0
2023-01-18T01:43:33.039Z,0
2023-01-18T01:44:13.554Z,0
2023-01-18T01:44:54.067Z,0
2023-01-18T01:45:34.632Z,0
2023-01-18T01:46:15.197Z,0
2023-01-18T01:46:55.750Z,0
2023-01-18T01:47:36.343Z,0
2023-01-18T01:48:16.852Z,0
2023-01-18T01:48:57.352Z,0
2023-01-18T01:49:37.898Z,0
2023-01-18T01:55:03.156Z,0
2023-01-18T01:55:43.699Z,0
2023-01-18T01:56:24.229Z,0
2023-01-18T01:57:04.803Z,0
2023-01-18T01:57:45.359Z,0
2023-01-18T02:00:23.587Z,0
2023-01-18T02:01:04.235Z,0
2023-01-18T02:01:45.428Z,0
2023-01-18T02:02:25.871Z,0
2023-01-18T02:05:49.337Z,0
2023-01-18T02:06:29.858Z,0
2023-01-18T02:07:10.401Z,0
2023-01-18T02:07:50.949Z,0
2023-01-18T02:08:31.437Z,0
2023-01-18T02:09:11.956Z,0
2023-01-18T02:09:52.527Z,0
2023-01-18T02:10:33.030Z,0
2023-01-18T02:17:18.362Z,0
2023-01-18T02:19:56.609Z,0
2023-01-18T02:20:37.161Z,0
2023-01-18T02:21:17.699Z,0
2023-01-18T02:21:58.239Z,0
2023-01-18T02:26:53.430Z,0
2023-01-18T02:27:33.905Z,0
2023-01-18T02:28:14.501Z,0
2023-01-18T02:28:55.017Z,0
2023-01-18T02:33:09.708Z,0
2023-01-18T02:33:50.216Z,0
2023-01-18T02:34:30.683Z,0
2023-01-18T02:35:11.221Z,0
2023-01-18T02:39:14.380Z,0
2023-01-18T02:39:54.912Z,0
2023-01-18T02:40:35.438Z,0
2023-01-18T02:41:15.960Z,0
2023-01-18T02:41:56.537Z,0
2023-01-18T02:42:37.039Z,0
2023-01-18T02:43:17.550Z,0
2023-01-18T02:43:58.062Z,0
2023-01-18T02:44:38.629Z,0
2023-01-18T02:45:19.131Z,0
2023-01-18T02:48:12.694Z,0
2023-01-18T02:48:53.236Z,0
2023-01-18T02:49:33.752Z,0
2023-01-18T02:50:14.305Z,0
2023-01-18T02:53:48.956Z,0
2023-01-18T02:54:29.483Z,0
2023-01-18T02:55:10.014Z,0
2023-01-18T02:55:50.535Z,0
2023-01-18T02:59:14.071Z,0
2023-01-18T02:59:54.594Z,0
2023-01-18T03:00:35.108Z,0
2023-01-18T03:01:15.692Z,0
2023-01-18T03:01:56.199Z,0
2023-01-18T03:02:36.758Z,0
2023-01-18T03:03:17.157Z,0
2023-01-18T03:03:57.690Z,0
2023-01-18T03:06:35.971Z,0
2023-01-18T03:07:16.672Z,0
2023-01-18T03:07:57.281Z,0
2023-01-18T03:08:37.792Z,0
2023-01-18T03:12:11.951Z,0
2023-01-18T03:12:52.465Z,0
2023-01-18T03:13:33.705Z,0
2023-01-18T03:14:14.228Z,0
2023-01-18T03:17:36.740Z,0
2023-01-18T03:18:17.261Z,0
2023-01-18T03:18:57.759Z,0
2023-01-18T03:19:38.278Z,0
2023-01-18T03:20:18.809Z,0
2023-01-18T03:20:59.264Z,0
2023-01-18T03:21:39.769Z,0
2023-01-18T03:22:20.351Z,0
2023-01-18T03:23:01.092Z,0
2023-01-18T03:23:41.366Z,0
2023-01-18T03:30:27.215Z,0
2023-01-18T03:31:07.761Z,0
2023-01-18T03:31:48.260Z,0
2023-01-18T03:32:28.807Z,0
2023-01-18T03:33:10.046Z,0
2023-01-18T03:33:50.552Z,0
2023-01-18T03:34:31.082Z,0
2023-01-18T03:35:11.594Z,0
2023-01-18T03:41:56.943Z,0
2023-01-18T03:42:37.511Z,0
2023-01-18T03:43:17.966Z,0
2023-01-18T03:43:58.502Z,0
2023-01-18T03:44:39.080Z,0
2023-01-18T03:45:19.595Z,0
2023-01-18T03:46:00.134Z,0
2023-01-18T03:46:40.605Z,0
2023-01-18T03:50:38.257Z,0
2023-01-18T03:51:18.793Z,0
2023-01-18T03:51:59.288Z,0
2023-01-18T03:52:39.804Z,0
2023-01-18T03:56:42.914Z,0
2023-01-18T03:57:23.422Z,0
2023-01-18T03:58:03.955Z,0
2023-01-18T03:58:44.464Z,0
2023-01-18T03:59:25.025Z,0
2023-01-18T04:00:05.492Z,0
2023-01-18T04:00:46.034Z,0
2023-01-18T04:01:26.674Z,0
2023-01-18T04:02:07.253Z,0
2023-01-18T04:02:47.597Z,0
2023-01-18T04:10:13.424Z,0
2023-01-18T04:12:51.937Z,0
2023-01-18T04:13:32.483Z,0
2023-01-18T04:14:12.975Z,0
2023-01-18T04:14:53.513Z,0
2023-01-18T04:19:08.146Z,0
2023-01-18T04:19:48.658Z,0
2023-01-18T04:20:29.157Z,0
2023-01-18T04:21:09.692Z,0
2023-01-18T04:25:12.898Z,0
2023-01-18T04:25:53.411Z,0
2023-01-18T04:26:33.911Z,0
2023-01-18T04:27:14.448Z,0
2023-01-18T04:27:55.794Z,0
2023-01-18T04:28:36.336Z,0
2023-01-18T04:29:16.864Z,0
2023-01-18T04:29:57.389Z,0
2023-01-18T04:34:52.552Z,0
2023-01-18T04:35:33.063Z,0
2023-01-18T04:36:13.598Z,0
2023-01-18T04:36:54.935Z,0
2023-01-18T04:38:57.485Z,0
2023-01-18T04:39:37.998Z,0
2023-01-18T04:42:17.380Z,0
2023-01-18T04:42:58.144Z,0
2023-01-18T04:43:38.414Z,0
2023-01-18T04:44:18.907Z,0
2023-01-18T04:48:22.963Z,0
2023-01-18T04:49:03.493Z,0
2023-01-18T04:49:43.999Z,0
2023-01-18T04:52:22.455Z,0
2023-01-18T04:53:02.993Z,0
2023-01-18T04:53:43.509Z,0
2023-01-18T04:54:24.021Z,0
2023-01-18T04:58:27.177Z,0
2023-01-18T04:59:07.707Z,0
2023-01-18T04:59:48.220Z,0
2023-01-18T05:00:28.782Z,0
2023-01-18T05:01:09.369Z,0
2023-01-18T05:01:49.777Z,0
2023-01-18T05:02:30.302Z,0
2023-01-18T05:03:10.776Z,0
2023-01-18T05:03:51.293Z,0
2023-01-18T05:04:31.831Z,0
2023-01-18T05:10:37.400Z,0
2023-01-18T05:11:18.559Z,0
2023-01-18T05:11:59.060Z,0
2023-01-18T05:12:39.586Z,0
2023-01-18T05:13:20.088Z,0
2023-01-18T05:14:00.647Z,0
2023-01-18T05:14:41.191Z,0
2023-01-18T05:15:21.697Z,0
2023-01-18T05:20:57.404Z,0
2023-01-18T05:21:37.999Z,0
2023-01-18T05:22:18.507Z,0
2023-01-18T05:22:59.377Z,0
2023-01-18T05:26:09.343Z,0
2023-01-18T05:26:49.874Z,0
2023-01-18T05:27:30.412Z,0
2023-01-18T05:28:10.965Z,0
2023-01-18T05:32:14.222Z,0
2023-01-18T05:32:54.723Z,0
2023-01-18T05:33:35.265Z,0
2023-01-18T05:34:15.782Z,0
2023-01-18T05:34:56.290Z,0
2023-01-18T05:35:36.836Z,0
2023-01-18T05:36:18.109Z,0
2023-01-18T05:36:58.599Z,0
2023-01-18T05:44:35.809Z,0
2023-01-18T05:45:16.345Z,0
2023-01-18T05:45:56.860Z,0
2023-01-18T05:46:37.322Z,0
2023-01-18T05:51:20.896Z,0
2023-01-18T05:52:01.399Z,0
2023-01-18T05:52:41.903Z,0
2023-01-18T05:53:22.390Z,0
2023-01-18T05:54:02.919Z,0
2023-01-18T05:54:43.355Z,0
2023-01-18T05:55:23.874Z,0
2023-01-18T05:56:04.392Z,0
2023-01-18T05:56:44.914Z,0
2023-01-18T05:57:25.464Z,0
2023-01-18T06:03:31.013Z,0
2023-01-18T06:04:11.615Z,0
2023-01-18T06:04:52.103Z,0
2023-01-18T06:05:32.540Z,0
2023-01-18T06:06:13.069Z,0
2023-01-18T06:06:53.574Z,0
2023-01-18T06:07:34.112Z,0
2023-01-18T06:08:15.363Z,0
2023-01-18T06:13:13.604Z,0
2023-01-18T06:13:54.240Z,0
2023-01-18T06:14:34.702Z,0
2023-01-18T06:15:16.204Z,0
2023-01-18T06:15:57.604Z,0
2023-01-18T06:16:38.824Z,0
2023-01-18T06:17:19.769Z,0
2023-01-18T06:18:01.171Z,0
2023-01-18T06:20:06.408Z,0
2023-01-18T06:22:20.904Z,0
2023-01-18T06:23:01.763Z,0
2023-01-18T06:23:41.953Z,0
2023-01-18T06:24:22.483Z,0
2023-01-18T06:28:25.628Z,0
2023-01-18T06:29:06.110Z,0
2023-01-18T06:29:46.644Z,0
2023-01-18T06:30:27.183Z,0
2023-01-18T06:31:07.734Z,0
2023-01-18T06:31:48.264Z,0
2023-01-18T06:32:28.790Z,0
2023-01-18T06:33:09.307Z,0
2023-01-18T06:33:49.807Z,0
2023-01-18T06:34:30.541Z,0
2023-01-18T06:38:45.038Z,0
2023-01-18T06:39:25.570Z,0
2023-01-18T06:40:06.036Z,0
2023-01-18T06:40:47.372Z,0
2023-01-18T06:43:02.119Z,0
2023-01-18T06:43:42.256Z,0
2023-01-18T06:44:22.842Z,0
2023-01-18T06:45:03.394Z,0
2023-01-18T06:47:46.587Z,0
2023-01-18T06:48:27.160Z,0
2023-01-18T06:49:08.803Z,0
2023-01-18T06:49:49.273Z,0
2023-01-18T06:50:29.813Z,0
2023-01-18T06:51:10.366Z,0
2023-01-18T06:51:51.013Z,0
2023-01-18T06:56:05.934Z,0
2023-01-18T06:56:46.451Z,0
2023-01-18T06:57:27.008Z,0
2023-01-18T06:58:07.519Z,0
2023-01-18T07:01:02.923Z,0
2023-01-18T07:01:43.432Z,0
2023-01-18T07:02:23.812Z,0
2023-01-18T07:03:04.290Z,0
2023-01-18T07:05:18.866Z,0
2023-01-18T07:05:59.320Z,0
2023-01-18T07:06:39.805Z,0
2023-01-18T07:07:20.288Z,0
2023-01-18T07:12:03.938Z,0
2023-01-18T07:12:44.449Z,0
2023-01-18T07:13:24.955Z,0
2023-01-18T07:14:05.579Z,5
2023-01-18T07:14:46.101Z,5
2023-01-18T07:15:26.626Z,5
2023-01-18T07:16:07.134Z,5
2023-01-18T07:16:47.699Z,5
2023-01-18T07:17:28.213Z,5
2023-01-18T07:25:45.845Z,10
2023-01-18T07:26:26.374Z,10
2023-01-18T07:27:06.902Z,10
2023-01-18T07:27:47.401Z,10
2023-01-18T07:31:50.513Z,15
2023-01-18T07:32:31.003Z,15
2023-01-18T07:33:11.532Z,15
2023-01-18T07:33:52.052Z,15
2023-01-18T07:36:30.682Z,15
2023-01-18T07:37:11.176Z,15
2023-01-18T07:37:51.686Z,15
2023-01-18T07:38:32.212Z,20
2023-01-18T07:42:06.420Z,20
2023-01-18T07:42:47.934Z,20
2023-01-18T07:43:28.430Z,20
2023-01-18T07:44:08.969Z,25
2023-01-18T07:46:51.649Z,25
2023-01-18T07:47:32.160Z,25
2023-01-18T07:48:12.683Z,25
2023-01-18T07:48:53.190Z,25
2023-01-18T07:49:33.696Z,25
2023-01-18T07:50:14.245Z,25
2023-01-18T07:50:54.737Z,25
2023-01-18T07:51:35.287Z,25
2023-01-18T07:57:01.379Z,30
2023-01-18T07:57:41.907Z,30
2023-01-18T07:58:23.164Z,30
2023-01-18T07:59:03.674Z,35
2023-01-18T08:01:42.290Z,35
2023-01-18T08:02:22.675Z,35
2023-01-18T08:03:03.472Z,40
2023-01-18T08:03:43.673Z,40
2023-01-18T08:06:37.428Z,40
2023-01-18T08:07:18.219Z,40
2023-01-18T08:07:58.772Z,40
2023-01-18T08:08:39.319Z,40
2023-01-18T08:10:53.850Z,45
2023-01-18T08:11:34.382Z,45
2023-01-18T08:12:14.906Z,45
2023-01-18T08:12:55.439Z,45
2023-01-18T08:16:30.258Z,50
2023-01-18T08:17:12.506Z,50
2023-01-18T08:17:53.021Z,55
2023-01-18T08:18:33.561Z,55
2023-01-18T08:19:54.605Z,60
2023-01-18T08:22:28.588Z,65
2023-01-18T08:23:09.050Z,65
2023-01-18T08:23:49.548Z,65
2023-01-18T08:24:30.178Z,65
2023-01-18T08:28:33.303Z,70
2023-01-18T08:29:13.848Z,70
2023-01-18T08:29:54.404Z,75
2023-01-18T08:30:34.925Z,75
2023-01-18T08:31:15.598Z,75
2023-01-18T08:31:55.988Z,75
2023-01-18T08:32:36.518Z,75
2023-01-18T08:33:17.072Z,75
2023-01-18T08:33:57.585Z,75
2023-01-18T08:34:38.126Z,75
2023-01-18T08:39:34.863Z,80
2023-01-18T08:40:15.379Z,80
2023-01-18T08:40:56.606Z,80
2023-01-18T08:41:37.206Z,80
2023-01-18T08:45:14.344Z,90
2023-01-18T08:45:56.071Z,90
2023-01-18T08:46:36.570Z,90
2023-01-18T08:47:17.181Z,90
2023-01-18T08:50:12.136Z,95
2023-01-18T08:50:52.638Z,95
2023-01-18T08:51:33.140Z,95
2023-01-18T08:52:13.709Z,95
2023-01-18T08:55:48.943Z,110
2023-01-18T08:56:29.415Z,110
2023-01-18T08:57:09.936Z,115
2023-01-18T08:57:50.445Z,115
2023-01-18T09:03:46.481Z,125
2023-01-18T09:04:26.982Z,125
2023-01-18T09:05:07.486Z,125
2023-01-18T09:05:47.987Z,125
2023-01-18T09:09:11.457Z,130
2023-01-18T09:09:51.972Z,130
2023-01-18T09:10:32.461Z,130
2023-01-18T09:11:13.023Z,135
2023-01-18T09:11:54.209Z,135
2023-01-18T09:12:34.770Z,135
2023-01-18T09:13:15.213Z,135
2023-01-18T09:14:02.888Z,135
2023-01-18T09:20:01.110Z,135
2023-01-18T09:20:41.654Z,145
2023-01-18T09:21:22.233Z,145
2023-01-18T09:22:02.786Z,150
2023-01-18T09:22:44.014Z,150
2023-01-18T09:23:24.579Z,150
2023-01-18T09:24:05.130Z,150
2023-01-18T09:24:45.708Z,150
2023-01-18T09:28:21.566Z,155
2023-01-18T09:29:03.482Z,155
2023-01-18T09:29:44.829Z,160
2023-01-18T09:30:29.087Z,165
2023-01-18T09:31:10.982Z,165
2023-01-18T09:32:00.933Z,165
2023-01-18T09:33:36.833Z,170
2023-01-18T09:34:18.724Z,170
2023-01-18T09:34:52.970Z,170
2023-01-18T09:35:36.499Z,170
2023-01-18T09:36:17.039Z,170
2023-01-18T09:37:01.071Z,170
2023-01-18T09:37:46.072Z,170
2023-01-18T09:39:16.447Z,175
2023-01-18T09:39:59.453Z,175
2023-01-18T09:42:17.024Z,175
2023-01-18T09:42:59.726Z,170
2023-01-18T09:45:13.258Z,170
2023-01-18T09:45:53.621Z,170
2023-01-18T09:46:35.803Z,170
2023-01-18T09:47:21.602Z,175
2023-01-18T09:49:51.360Z,175
2023-01-18T09:50:31.942Z,180
2023-01-18T09:51:12.517Z,180
2023-01-18T09:51:53.056Z,180
2023-01-18T09:56:07.801Z,185
2023-01-18T09:56:48.415Z,190
2023-01-18T09:57:28.961Z,190
2023-01-18T09:58:09.490Z,190
2023-01-18T10:01:03.723Z,205
2023-01-18T10:01:45.269Z,205
2023-01-18T10:02:25.883Z,205
2023-01-18T10:03:06.471Z,205
2023-01-18T10:05:08.287Z,205
2023-01-18T10:05:49.352Z,200
2023-01-18T10:06:30.655Z,205
2023-01-18T10:07:11.308Z,205
2023-01-18T10:07:51.964Z,210
2023-01-18T10:08:32.530Z,210
2023-01-18T10:09:13.131Z,210
2023-01-18T10:16:10.142Z,220
2023-01-18T10:16:50.693Z,220
2023-01-18T10:17:31.250Z,225
2023-01-18T10:18:11.910Z,225
2023-01-18T10:21:34.707Z,225
2023-01-18T10:22:15.968Z,225
2023-01-18T10:22:56.191Z,220
2023-01-18T10:23:36.479Z,215
2023-01-18T10:24:17.271Z,225
2023-01-18T10:24:57.697Z,230
2023-01-18T10:25:38.395Z,235
2023-01-18T10:26:18.932Z,230
2023-01-18T10:26:59.582Z,240
2023-01-18T10:33:16.194Z,235
2023-01-18T10:33:56.727Z,245
2023-01-18T10:34:37.313Z,245
2023-01-18T10:35:17.890Z,250
2023-01-18T10:38:01.362Z,255
2023-01-18T10:38:41.757Z,255
2023-01-18T10:39:22.347Z,260
2023-01-18T10:40:02.922Z,260
2023-01-18T10:40:43.448Z,255
2023-01-18T10:41:23.959Z,250
2023-01-18T10:42:06.193Z,250
2023-01-18T10:42:45.073Z,250
2023-01-18T10:43:25.645Z,245
2023-01-18T10:46:19.262Z,250
2023-01-18T10:46:59.764Z,250
2023-01-18T10:47:40.284Z,250
2023-01-18T10:48:20.856Z,250
2023-01-18T10:52:24.673Z,260
2023-01-18T10:53:05.219Z,265
2023-01-18T10:53:45.728Z,265
2023-01-18T10:54:26.232Z,265
2023-01-18T10:55:06.749Z,265
2023-01-18T10:55:47.291Z,270
2023-01-18T10:56:27.809Z,270
2023-01-18T10:57:10.008Z,260
2023-01-18T10:57:48.887Z,255
2023-01-18T11:00:42.995Z,265
2023-01-18T11:01:23.642Z,260
2023-01-18T11:02:04.256Z,250
2023-01-18T11:02:46.927Z,250
2023-01-18T11:04:07.999Z,240
2023-01-18T11:04:48.535Z,240
2023-01-18T11:08:20.079Z,240
2023-01-18T11:09:00.593Z,235
2023-01-18T11:09:41.081Z,235
2023-01-18T11:10:21.622Z,225
2023-01-18T11:13:45.109Z,205
2023-01-18T11:14:25.625Z,210
2023-01-18T11:15:06.123Z,210
2023-01-18T11:15:46.659Z,215
2023-01-18T11:16:27.228Z,220
2023-01-18T11:17:07.663Z,230
2023-01-18T11:17:48.207Z,230
2023-01-18T11:18:28.717Z,230
2023-01-18T11:19:09.252Z,230
2023-01-18T11:19:49.708Z,235
2023-01-18T11:25:14.826Z,215
2023-01-18T11:25:56.018Z,210
2023-01-18T11:26:36.538Z,210
2023-01-18T11:27:17.051Z,210
2023-01-18T11:27:57.859Z,210
2023-01-18T11:28:39.104Z,210
2023-01-18T11:34:44.929Z,210
2023-01-18T11:35:25.435Z,210
2023-01-18T11:36:05.961Z,210
2023-01-18T11:36:46.499Z,200
2023-01-18T11:37:27.045Z,205
2023-01-18T11:38:07.556Z,200
2023-01-18T11:38:48.097Z,200
2023-01-18T11:39:28.620Z,200
2023-01-18T11:40:09.139Z,195
2023-01-18T11:40:49.642Z,195
2023-01-18T11:43:44.213Z,200
2023-01-18T11:44:25.616Z,200
2023-01-18T11:45:06.126Z,205
2023-01-18T11:45:46.707Z,205
2023-01-18T11:49:09.266Z,205
2023-01-18T11:49:49.874Z,205
2023-01-18T11:50:30.320Z,205
2023-01-18T11:51:11.619Z,205
2023-01-18T11:51:52.712Z,205
2023-01-18T11:52:33.300Z,205
2023-01-18T11:53:13.826Z,205
2023-01-18T11:59:59.153Z,195
2023-01-18T12:00:39.703Z,200
2023-01-18T12:01:20.393Z,195
2023-01-18T12:02:00.767Z,200
2023-01-18T12:02:41.255Z,200
2023-01-18T12:03:21.790Z,200
2023-01-18T12:04:02.274Z,200
2023-01-18T12:04:42.802Z,200
2023-01-18T12:05:23.415Z,200
2023-01-18T12:11:29.691Z,230
2023-01-18T12:12:18.802Z,230
2023-01-18T12:12:50.762Z,225
2023-01-18T12:13:32.136Z,220
2023-01-18T12:14:12.727Z,220
2023-01-18T12:16:51.285Z,185
2023-01-18T12:17:31.756Z,180
2023-01-18T12:18:13.762Z,175
2023-01-18T12:18:52.799Z,175
2023-01-18T12:22:56.039Z,170
2023-01-18T12:23:37.198Z,175
2023-01-18T12:24:17.086Z,175
2023-01-18T12:24:57.605Z,175
2023-01-18T12:25:38.139Z,180
2023-01-18T12:26:18.637Z,180
2023-01-18T12:26:59.184Z,185
2023-01-18T12:27:39.698Z,185
2023-01-18T12:33:46.856Z,175
2023-01-18T12:34:27.363Z,175
2023-01-18T12:35:19.167Z,180
2023-01-18T12:35:48.501Z,180
2023-01-18T12:36:29.755Z,180
2023-01-18T12:41:27.313Z,185
2023-01-18T12:42:07.872Z,180
2023-01-18T12:42:48.452Z,180
2023-01-18T12:43:29.615Z,175
2023-01-18T12:45:42.652Z,175
2023-01-18T12:46:23.211Z,175
2023-01-18T12:47:03.700Z,180
2023-01-18T12:47:44.236Z,180
2023-01-18T12:51:47.320Z,160
2023-01-18T12:52:27.790Z,160
2023-01-18T12:53:08.253Z,160
2023-01-18T12:53:48.910Z,155
2023-01-18T12:54:29.491Z,155
2023-01-18T12:55:10.021Z,150
2023-01-18T12:55:50.535Z,150
2023-01-18T12:56:31.081Z,145
2023-01-18T12:57:11.640Z,145
2023-01-18T12:57:52.161Z,140
2023-01-18T13:03:18.334Z,140
2023-01-18T13:03:58.897Z,140
2023-01-18T13:04:39.386Z,140
2023-01-18T13:05:19.942Z,145
2023-01-18T13:06:00.491Z,150
2023-01-18T13:06:41.014Z,150
2023-01-18T13:07:21.700Z,155
2023-01-18T13:12:47.473Z,175
2023-01-18T13:13:28.025Z,175
2023-01-18T13:14:08.545Z,180
2023-01-18T13:14:49.079Z,180
2023-01-18T13:15:29.673Z,185
2023-01-18T13:16:10.210Z,195
2023-01-18T13:16:50.747Z,190
2023-01-18T13:17:31.292Z,190
2023-01-18T13:18:11.835Z,195
2023-01-18T13:24:18.186Z,205
2023-01-18T13:26:57.357Z,210
2023-01-18T13:27:37.922Z,205
2023-01-18T13:28:18.522Z,205
2023-01-18T13:28:59.011Z,205
2023-01-18T13:32:22.749Z,205
2023-01-18T13:33:03.296Z,200
2023-01-18T13:33:43.809Z,200
2023-01-18T13:34:24.365Z,195
2023-01-18T13:35:19.359Z,195
2023-01-18T13:35:46.521Z,190
2023-01-18T13:36:26.044Z,190
2023-01-18T13:39:51.279Z,180
2023-01-18T13:40:31.863Z,175
2023-01-18T13:41:12.374Z,170
2023-01-18T13:41:52.930Z,170
2023-01-18T13:42:33.457Z,170
2023-01-18T13:43:13.979Z,165
2023-01-18T13:43:54.505Z,170
2023-01-18T13:44:35.024Z,165
2023-01-18T13:45:15.604Z,165
2023-01-18T13:45:56.168Z,160
2023-01-18T13:51:21.343Z,165
2023-01-18T13:52:01.884Z,165
2023-01-18T13:52:42.390Z,165
2023-01-18T13:53:22.937Z,160
2023-01-18T13:54:03.484Z,160
2023-01-18T13:54:46.547Z,160
2023-01-18T13:55:24.494Z,160
2023-01-18T13:56:05.056Z,155
2023-01-18T13:56:45.569Z,150
2023-01-18T13:57:26.127Z,145
2023-01-18T14:02:51.473Z,100
2023-01-18T14:03:32.734Z,100
2023-01-18T14:04:13.245Z,95
2023-01-18T14:04:53.839Z,90
2023-01-18T14:05:34.357Z,85
2023-01-18T14:06:14.949Z,80
2023-01-18T14:06:55.487Z,75
2023-01-18T14:07:36.004Z,75
2023-01-18T14:13:41.465Z,65
2023-01-18T14:14:21.975Z,60
2023-01-18T14:15:02.521Z,60
2023-01-18T14:15:43.041Z,60
2023-01-18T14:16:23.770Z,60
2023-01-18T14:17:04.331Z,60
2023-01-18T14:17:57.534Z,60
2023-01-18T14:18:25.479Z,60
2023-01-18T14:19:05.951Z,60
2023-01-18T14:26:31.738Z,60
2023-01-18T14:27:12.217Z,65
2023-01-18T14:27:52.777Z,65
2023-01-18T14:28:36.226Z,65
2023-01-18T14:29:13.826Z,70
2023-01-18T14:29:54.348Z,70
2023-01-18T14:30:34.931Z,65
2023-01-18T14:31:15.516Z,65
2023-01-18T14:31:56.044Z,65
2023-01-18T14:38:16.681Z,75
2023-01-18T14:38:42.045Z,80
2023-01-18T14:39:22.557Z,80
2023-01-18T14:40:03.068Z,80
2023-01-18T14:40:43.608Z,75
2023-01-18T14:41:24.102Z,70
2023-01-18T14:42:04.631Z,70
2023-01-18T14:42:45.157Z,70
2023-01-18T14:43:25.673Z,70
2023-01-18T14:50:23.672Z,50
2023-01-18T14:51:04.222Z,55
2023-01-18T14:51:44.710Z,55
2023-01-18T14:52:25.222Z,55
2023-01-18T14:54:58.561Z,55
2023-01-18T14:55:39.108Z,55
2023-01-18T14:56:19.673Z,55
2023-01-18T14:57:00.990Z,50
2023-01-18T14:59:43.198Z,50
2023-01-18T15:00:23.710Z,45
2023-01-18T15:01:04.366Z,45
2023-01-18T15:01:44.888Z,45
2023-01-18T15:02:25.338Z,40
2023-01-18T15:03:05.892Z,40
2023-01-18T15:03:46.458Z,40
2023-01-18T15:04:26.979Z,40
2023-01-18T15:05:07.526Z,35
2023-01-18T15:05:48.024Z,35
2023-01-18T15:10:54.636Z,35
2023-01-18T15:11:35.174Z,35
2023-01-18T15:12:16.156Z,35
2023-01-18T15:12:57.054Z,35
2023-01-18T15:15:39.600Z,30
2023-01-18T15:16:20.206Z,30
2023-01-18T15:17:01.293Z,30
2023-01-18T15:17:41.781Z,30
2023-01-18T15:18:22.280Z,30
2023-01-18T15:21:00.761Z,30
2023-01-18T15:21:41.280Z,30
2023-01-18T15:22:21.783Z,30
2023-01-18T15:23:02.488Z,30
2023-01-18T15:27:05.476Z,25
2023-01-18T15:27:45.983Z,25
2023-01-18T15:28:26.502Z,25
2023-01-18T15:29:07.037Z,25
2023-01-18T15:29:47.589Z,25
2023-01-18T15:32:26.016Z,25
2023-01-18T15:33:06.520Z,25
2023-01-18T15:33:47.052Z,20
2023-01-18T15:34:27.616Z,20
2023-01-18T15:38:30.814Z,15
2023-01-18T15:39:11.933Z,15
2023-01-18T15:39:52.467Z,15
2023-01-18T15:40:32.986Z,15
2023-01-18T15:43:11.510Z,15
2023-01-18T15:43:52.005Z,10
2023-01-18T15:44:32.505Z,10
2023-01-18T15:45:13.136Z,10
2023-01-18T15:48:36.326Z,10
2023-01-18T15:49:16.878Z,10
2023-01-18T15:49:57.414Z,10
2023-01-18T15:50:37.921Z,10
2023-01-18T15:51:18.453Z,5
2023-01-18T15:51:58.969Z,5
2023-01-18T15:52:39.504Z,5
2023-01-18T15:53:20.030Z,5
2023-01-18T15:59:26.513Z,5
2023-01-18T16:00:07.103Z,5
2023-01-18T16:02:45.563Z,0
2023-01-18T16:03:26.015Z,0
2023-01-18T16:04:06.531Z,0
2023-01-18T16:04:47.064Z,0
2023-01-18T16:09:41.859Z,0
2023-01-18T16:10:22.370Z,0
2023-01-18T16:11:02.914Z,0
2023-01-18T16:11:43.427Z,0
2023-01-18T16:13:57.939Z,0
2023-01-18T16:14:38.454Z,0
2023-01-18T16:15:18.949Z,0
2023-01-18T16:15:59.459Z,0
2023-01-18T16:20:02.738Z,0
2023-01-18T16:20:43.250Z,0
2023-01-18T16:21:23.755Z,0
2023-01-18T16:24:02.674Z,0
2023-01-18T16:24:43.238Z,0
2023-01-18T16:25:23.769Z,0
2023-01-18T16:26:04.270Z,0
2023-01-18T16:29:38.231Z,0
2023-01-18T16:30:18.643Z,0
2023-01-18T16:30:59.307Z,0
2023-01-18T16:31:39.681Z,0
2023-01-18T16:35:03.208Z,0
2023-01-18T16:35:43.746Z,0
2023-01-18T16:36:27.569Z,0
2023-01-18T16:37:05.717Z,0
2023-01-18T16:37:48.521Z,0
2023-01-18T16:40:43.948Z,0
2023-01-18T16:41:22.563Z,0
2023-01-18T16:42:03.100Z,0
2023-01-18T16:42:43.584Z,0
2023-01-18T16:46:06.744Z,0
2023-01-18T16:46:47.233Z,0
2023-01-18T16:47:27.731Z,0
2023-01-18T16:48:08.268Z,0
2023-01-18T16:48:48.741Z,0
2023-01-18T16:49:29.241Z,0
2023-01-18T16:50:09.730Z,0
2023-01-18T16:50:50.236Z,0
2023-01-18T16:51:31.260Z,0
2023-01-18T16:55:46.106Z,0
2023-01-18T16:56:26.614Z,0
2023-01-18T16:57:07.140Z,0
2023-01-18T16:57:47.638Z,0
2023-01-18T17:01:58.201Z,0
2023-01-18T17:02:38.579Z,0
2023-01-18T17:03:19.056Z,0
2023-01-18T17:03:59.572Z,0
2023-01-18T17:08:03.450Z,0
2023-01-18T17:08:43.985Z,0
2023-01-18T17:09:25.331Z,0
2023-01-18T17:10:05.873Z,0
2023-01-18T17:10:46.420Z,0
2023-01-18T17:11:26.953Z,0
2023-01-18T17:12:07.474Z,0
2023-01-18T17:17:33.084Z,0
2023-01-18T17:18:13.613Z,0
2023-01-18T17:18:55.117Z,0
2023-01-18T17:19:35.618Z,0
2023-01-18T17:20:16.140Z,0
2023-01-18T17:20:57.211Z,0
2023-01-18T17:21:37.737Z,0
2023-01-18T17:27:42.738Z,0
2023-01-18T17:28:23.258Z,0
2023-01-18T17:29:03.800Z,0
2023-01-18T17:29:44.317Z,0
2023-01-18T17:30:24.842Z,0
2023-01-18T17:31:05.464Z,0
2023-01-18T17:31:52.092Z,0
2023-01-18T17:33:07.480Z,0
2023-01-18T17:39:28.069Z,0
2023-01-18T17:40:16.011Z,0
2023-01-18T17:40:48.931Z,0
2023-01-18T17:41:30.295Z,0
2023-01-18T17:42:18.894Z,0
2023-01-18T17:46:19.676Z,0
2023-01-18T17:47:02.193Z,0
2023-01-18T17:48:29.764Z,0
2023-01-18T17:49:12.048Z,0
2023-01-18T17:49:52.578Z,0
2023-01-18T17:50:33.638Z,0
2023-01-18T17:54:13.261Z,0
2023-01-18T17:54:48.232Z,0
2023-01-18T17:55:34.565Z,0
2023-01-18T17:56:09.257Z,0
2023-01-18T18:01:50.243Z,0
2023-01-18T18:02:30.778Z,0
2023-01-18T18:03:11.963Z,0
2023-01-18T18:03:55.020Z,0
2023-01-18T18:04:35.580Z,0
2023-01-18T18:07:03.834Z,0
2023-01-18T18:07:44.329Z,0
2023-01-18T18:08:24.812Z,0
2023-01-18T18:09:05.354Z,0
2023-01-18T18:13:48.908Z,0
2023-01-18T18:14:29.419Z,0
2023-01-18T18:15:09.930Z,0
2023-01-18T18:15:50.535Z,0
2023-01-18T18:16:31.620Z,0
2023-01-18T18:17:11.454Z,0
2023-01-18T18:17:51.968Z,0
2023-01-18T18:18:32.488Z,0
2023-01-18T18:19:13.132Z,0
2023-01-18T18:25:30.939Z,0
2023-01-18T18:26:11.520Z,0
2023-01-18T18:26:52.047Z,0